Terminal Aerodrome Forecast
Issued by NWS Grand Forks, ND

Home | Current Version | Previous Version | Graphics & Text | Print | Product List | Glossary On
Versions: 1 2 3 4 5 6 7 8 9 10 11 12 13 14 15 16 17 18 19 20
000
FTUS43 KFGF 140537
TAFGFK
TAF
KGFK 140537Z 1406/1506 18010KT P6SM BKN140
     FM140700 19012KT P6SM BKN015
     FM141500 23010KT 1SM -SN OVC025
     FM141700 28011KT P6SM OVC025
     FM142000 34017KT 2SM BLSN BKN025
     FM142300 34016G25KT 5SM BLSN SCT025
     FM150000 34014KT P6SM SCT025=

USA.gov is the U.S. government's official web portal to all federal, state and local government web resources and services.